Time;durP1;ratioP1;P1;durP2;ratioP2;P2;SDS_P1;SDS_P2;PMS_P1;PMS_P2;Temp;Humidity;BMP_temperature;BMP_pressure;BME280_temperature;BME280_humidity;BME280_pressure;Samples;Min_cycle;Max_cycle;Signal;HPM_P1;HPM_P2
2022/04/21 00:00:07;;;;;;;3.70;2.75;;;11.60;99.90;;;;;;5096042;28;20165;-51
2022/04/21 00:02:32;;;;;;;3.35;2.28;;;11.70;99.90;;;;;;5096204;28;20165;-51
2022/04/21 00:04:58;;;;;;;3.35;2.70;;;11.60;99.90;;;;;;5095580;28;20262;-49
2022/04/21 00:07:24;;;;;;;3.67;2.30;;;11.60;99.90;;;;;;5095328;28;20190;-51
2022/04/21 00:09:50;;;;;;;3.92;2.65;;;11.50;99.90;;;;;;5095650;28;20176;-51
2022/04/21 00:12:16;;;;;;;5.13;2.88;;;11.60;99.90;;;;;;5095695;28;20169;-50
2022/04/21 00:14:42;;;;;;;3.92;2.50;;;11.50;99.90;;;;;;5095448;28;20514;-51
2022/04/21 00:17:08;;;;;;;3.70;3.03;;;11.60;99.90;;;;;;5095275;28;20168;-50
2022/04/21 00:19:35;;;;;;;4.22;2.40;;;11.50;99.90;;;;;;5095891;28;20173;-49
2022/04/21 00:24:44;;;;;;;2.97;2.50;;;11.40;99.90;;;;;;5095190;28;20176;-50
2022/04/21 00:27:10;;;;;;;6.53;2.47;;;11.40;99.90;;;;;;5095043;28;20161;-50
2022/04/21 00:29:36;;;;;;;5.78;2.97;;;11.30;99.90;;;;;;5095433;28;20622;-50
2022/04/21 00:32:02;;;;;;;6.03;2.97;;;11.40;99.90;;;;;;5095608;28;20180;-51
2022/04/21 00:34:27;;;;;;;2.63;2.35;;;11.40;99.90;;;;;;5095005;28;20222;-51
2022/04/21 00:36:53;;;;;;;4.07;2.58;;;11.40;99.90;;;;;;5094902;28;20173;-51
2022/04/21 00:39:18;;;;;;;4.10;3.30;;;11.30;99.90;;;;;;5094948;28;20170;-49
2022/04/21 00:41:44;;;;;;;4.60;2.80;;;11.30;99.90;;;;;;5094890;28;20690;-50
2022/04/21 00:44:09;;;;;;;4.25;3.00;;;11.30;99.90;;;;;;5094869;28;20222;-50
2022/04/21 00:46:38;;;;;;;3.90;2.85;;;11.30;99.90;;;;;;5095070;28;20261;-49
2022/04/21 00:49:04;;;;;;;3.47;3.00;;;11.20;99.90;;;;;;5095088;28;20187;-50
2022/04/21 00:51:31;;;;;;;3.72;2.97;;;11.20;99.90;;;;;;5094489;28;20181;-50
2022/04/21 00:53:57;;;;;;;3.88;2.90;;;11.20;99.90;;;;;;5094941;28;20627;-50
2022/04/21 00:56:23;;;;;;;8.32;3.03;;;11.10;99.90;;;;;;5094611;28;20580;-51
2022/04/21 00:58:49;;;;;;;4.60;2.60;;;11.10;99.90;;;;;;5094414;28;20206;-50
2022/04/21 01:03:59;;;;;;;3.38;3.08;;;11.10;99.90;;;;;;5094379;28;20177;-51
2022/04/21 01:06:25;;;;;;;7.30;3.58;;;11.00;99.90;;;;;;5094846;28;20530;-51
2022/04/21 01:08:50;;;;;;;3.38;2.92;;;11.00;99.90;;;;;;5094490;28;20590;-51
2022/04/21 01:11:17;;;;;;;4.75;2.70;;;11.00;99.90;;;;;;5094384;28;20247;-51
2022/04/21 01:13:43;;;;;;;4.97;2.90;;;10.90;99.90;;;;;;5094284;28;20168;-51
2022/04/21 01:16:08;;;;;;;4.47;2.75;;;10.90;99.90;;;;;;5094178;28;20166;-51
2022/04/21 01:18:34;;;;;;;3.97;2.83;;;10.90;99.90;;;;;;5094415;28;20630;-50
2022/04/21 01:21:00;;;;;;;2.90;2.55;;;10.90;99.90;;;;;;5094149;28;20173;-50
2022/04/21 01:23:26;;;;;;;3.45;2.80;;;10.90;99.90;;;;;;5094155;28;20246;-50
2022/04/21 01:25:52;;;;;;;4.53;2.80;;;10.90;99.90;;;;;;5094073;28;20181;-51
2022/04/21 01:28:18;;;;;;;3.85;3.13;;;10.90;99.90;;;;;;5093826;28;20253;-51
2022/04/21 01:30:44;;;;;;;4.20;3.00;;;10.90;99.90;;;;;;5093943;28;20699;-50
2022/04/21 01:33:09;;;;;;;3.28;2.97;;;10.90;99.90;;;;;;5093896;28;20196;-50
2022/04/21 01:35:36;;;;;;;3.83;2.50;;;10.70;99.90;;;;;;5094172;28;20166;-50
2022/04/21 01:43:29;;;;;;;5.78;3.13;;;10.60;99.90;;;;;;5093690;28;20172;-50
2022/04/21 01:45:55;;;;;;;3.45;3.15;;;10.60;99.90;;;;;;5093573;28;20174;-50
2022/04/21 01:48:20;;;;;;;3.13;2.83;;;10.50;99.90;;;;;;5093632;28;20223;-50
2022/04/21 01:50:46;;;;;;;4.15;2.60;;;10.60;99.90;;;;;;5093501;28;20254;-50
2022/04/21 01:53:11;;;;;;;3.75;3.10;;;10.60;99.90;;;;;;5093428;28;20249;-51
2022/04/21 01:55:37;;;;;;;3.92;2.92;;;10.60;99.90;;;;;;5093477;28;20172;-50
2022/04/21 01:58:03;;;;;;;7.72;3.55;;;10.50;99.90;;;;;;5093757;28;20201;-50
2022/04/21 02:00:28;;;;;;;4.07;3.00;;;10.50;99.90;;;;;;5093437;28;20219;-50
2022/04/21 02:02:54;;;;;;;3.72;3.33;;;10.50;99.90;;;;;;5092762;28;20174;-50
2022/04/21 02:05:20;;;;;;;5.18;3.40;;;10.40;99.90;;;;;;5093261;28;20168;-50
2022/04/21 02:07:46;;;;;;;4.57;3.00;;;10.40;99.90;;;;;;5093174;28;20165;-49
2022/04/21 02:10:13;;;;;;;4.60;2.92;;;10.40;99.90;;;;;;5093141;28;20184;-49
2022/04/21 02:12:39;;;;;;;4.75;3.00;;;10.40;99.90;;;;;;5093372;28;20169;-49
2022/04/21 02:15:06;;;;;;;3.63;3.33;;;10.40;99.90;;;;;;5093344;28;20161;-50
2022/04/21 02:17:33;;;;;;;4.90;3.15;;;10.40;99.90;;;;;;5093520;28;20213;-49
2022/04/21 02:19:59;;;;;;;4.70;3.22;;;10.40;99.90;;;;;;5093285;28;20170;-49
2022/04/21 02:22:25;;;;;;;3.63;2.65;;;10.30;99.90;;;;;;5093147;28;20279;-50
2022/04/21 02:24:50;;;;;;;5.00;2.95;;;10.30;99.90;;;;;;5092903;28;20703;-50
2022/04/21 02:27:16;;;;;;;6.47;2.97;;;10.30;99.90;;;;;;5092713;28;20256;-49
2022/04/21 02:29:42;;;;;;;6.97;3.38;;;10.30;99.90;;;;;;5092843;28;20165;-50
2022/04/21 02:32:07;;;;;;;3.83;3.00;;;10.30;99.90;;;;;;5074696;28;20169;-50
2022/04/21 02:34:33;;;;;;;4.13;3.13;;;10.20;99.90;;;;;;5093012;28;20169;-49
2022/04/21 02:36:58;;;;;;;9.05;3.53;;;10.20;99.90;;;;;;5092622;28;20170;-49
2022/04/21 02:39:24;;;;;;;4.20;3.33;;;10.10;99.90;;;;;;5092621;28;20255;-50
2022/04/21 02:41:50;;;;;;;4.13;3.38;;;10.00;99.90;;;;;;5092835;28;20264;-50
2022/04/21 02:44:16;;;;;;;10.77;3.72;;;10.00;99.90;;;;;;5092607;28;20157;-49
2022/04/21 02:46:41;;;;;;;5.15;3.17;;;10.00;99.90;;;;;;5092835;28;20169;-50
2022/04/21 02:49:07;;;;;;;5.18;3.33;;;10.10;99.90;;;;;;5092607;28;20165;-50
2022/04/21 02:51:34;;;;;;;5.72;3.20;;;10.00;99.90;;;;;;5092795;28;20210;-50
2022/04/21 02:59:29;;;;;;;5.28;2.97;;;9.90;99.90;;;;;;5092570;28;20222;-49
2022/04/21 03:01:54;;;;;;;3.55;3.25;;;9.90;99.90;;;;;;5092301;28;20169;-50
2022/04/21 03:04:20;;;;;;;5.43;3.45;;;9.90;99.90;;;;;;5092301;28;20190;-49
2022/04/21 03:06:46;;;;;;;7.72;3.35;;;9.80;99.90;;;;;;5092289;28;20521;-51
2022/04/21 03:09:11;;;;;;;6.45;3.38;;;9.80;99.90;;;;;;5074113;28;20173;-49
2022/04/21 03:11:37;;;;;;;6.57;3.15;;;9.80;99.90;;;;;;5092405;28;20166;-50
2022/04/21 03:14:02;;;;;;;4.88;3.20;;;9.80;99.90;;;;;;5092270;28;20528;-50
2022/04/21 03:16:28;;;;;;;4.63;3.00;;;9.70;99.90;;;;;;5092161;28;20169;-49
2022/04/21 03:18:53;;;;;;;4.68;3.50;;;9.70;99.90;;;;;;5092035;28;20208;-50
2022/04/21 03:24:21;;;;;;;5.60;3.17;;;9.80;99.90;;;;;;5092692;28;20179;-49
2022/04/21 03:26:51;;;;;;;7.82;3.38;;;9.70;99.90;;;;;;5092281;28;20173;-49
2022/04/21 03:29:17;;;;;;;3.53;3.22;;;9.70;99.90;;;;;;5091835;28;20636;-50
2022/04/21 03:31:43;;;;;;;4.80;2.67;;;9.60;99.90;;;;;;5092023;28;20219;-50
2022/04/21 03:34:13;;;;;;;4.85;3.17;;;9.60;99.90;;;;;;5092222;28;20169;-50
2022/04/21 03:36:41;;;;;;;3.92;3.60;;;9.60;99.90;;;;;;5092199;28;20171;-50
2022/04/21 03:39:07;;;;;;;4.70;3.17;;;9.60;99.90;;;;;;5091959;28;20229;-50
2022/04/21 03:41:34;;;;;;;4.75;3.00;;;9.60;99.90;;;;;;5092313;28;20618;-49
2022/04/21 03:43:59;;;;;;;5.70;3.50;;;9.60;99.90;;;;;;5091846;28;20210;-49
2022/04/21 03:46:25;;;;;;;4.57;3.40;;;9.60;99.90;;;;;;5091836;28;20524;-49
2022/04/21 03:48:50;;;;;;;4.20;3.58;;;9.60;99.90;;;;;;5091786;28;20177;-50
2022/04/21 03:51:16;;;;;;;4.05;3.03;;;9.50;99.90;;;;;;5091884;28;20200;-50
2022/04/21 03:53:41;;;;;;;4.57;3.40;;;9.50;99.90;;;;;;5092013;28;20622;-49
2022/04/21 03:56:07;;;;;;;6.43;3.00;;;9.50;99.90;;;;;;5091721;28;20169;-49
2022/04/21 03:58:33;;;;;;;4.68;2.95;;;9.50;99.90;;;;;;5091986;28;20284;-50
2022/04/21 04:00:58;;;;;;;3.60;2.70;;;9.40;99.90;;;;;;5091910;28;20196;-50
2022/04/21 04:03:24;;;;;;;4.28;3.22;;;9.40;99.90;;;;;;5091713;28;20201;-49
2022/04/21 04:05:49;;;;;;;3.53;2.83;;;9.40;99.90;;;;;;5091687;28;20178;-49
2022/04/21 04:11:00;;;;;;;4.68;3.03;;;9.30;99.90;;;;;;5091809;28;20213;-50
2022/04/21 04:13:26;;;;;;;4.78;2.97;;;9.30;99.90;;;;;;5091447;28;20622;-50
2022/04/21 04:15:53;;;;;;;4.28;3.25;;;9.30;99.90;;;;;;5091247;28;20180;-49
2022/04/21 04:18:21;;;;;;;4.00;3.25;;;9.30;99.90;;;;;;5091555;28;20292;-50
2022/04/21 04:20:47;;;;;;;4.28;3.10;;;9.30;99.90;;;;;;5091516;28;20165;-50
2022/04/21 04:23:17;;;;;;;11.18;4.28;;;9.20;99.90;;;;;;5091655;28;20170;-50
2022/04/21 04:25:42;;;;;;;9.07;3.35;;;9.20;99.90;;;;;;5093144;28;20169;-50
2022/04/21 04:28:08;;;;;;;10.60;3.13;;;9.20;99.90;;;;;;5095078;28;20221;-50
2022/04/21 04:30:33;;;;;;;4.97;3.50;;;9.20;99.90;;;;;;5095475;28;20186;-50
2022/04/21 04:32:59;;;;;;;6.22;3.22;;;9.10;99.90;;;;;;5095152;28;20607;-50
2022/04/21 04:35:25;;;;;;;7.70;3.17;;;9.10;99.90;;;;;;5095082;28;20230;-49
2022/04/21 04:37:52;;;;;;;10.02;3.78;;;9.10;99.90;;;;;;5095073;28;20261;-50
2022/04/21 04:40:18;;;;;;;5.95;3.33;;;8.90;99.90;;;;;;5095120;28;20169;-51
2022/04/21 04:42:43;;;;;;;10.10;3.33;;;8.80;99.90;;;;;;5094902;28;20709;-49
2022/04/21 04:47:53;;;;;;;6.55;3.63;;;8.70;99.90;;;;;;5095011;28;20519;-50
2022/04/21 04:50:19;;;;;;;7.35;3.40;;;8.70;99.90;;;;;;5094648;28;20165;-50
2022/04/21 04:52:44;;;;;;;5.18;3.65;;;8.70;99.90;;;;;;5094665;28;20169;-49
2022/04/21 04:55:11;;;;;;;8.63;3.20;;;8.90;99.90;;;;;;5094533;28;20161;-49
2022/04/21 04:57:38;;;;;;;3.65;3.30;;;9.00;99.90;;;;;;5094614;28;20295;-50
2022/04/21 05:00:05;;;;;;;7.35;3.88;;;9.00;99.90;;;;;;5094712;28;20180;-50
2022/04/21 05:02:31;;;;;;;4.93;3.15;;;9.10;99.90;;;;;;5094451;28;20226;-50
2022/04/21 05:04:57;;;;;;;6.25;3.38;;;9.10;99.90;;;;;;5094400;28;20157;-50
2022/04/21 05:07:23;;;;;;;3.72;3.20;;;9.10;99.90;;;;;;5094416;28;20170;-49
2022/04/21 05:09:48;;;;;;;9.23;3.35;;;9.20;99.90;;;;;;5094436;28;20598;-50
2022/04/21 05:12:14;;;;;;;9.00;3.20;;;9.10;99.90;;;;;;5094306;28;20252;-50
2022/04/21 05:14:40;;;;;;;7.45;3.83;;;9.10;99.90;;;;;;5094205;28;20161;-50
2022/04/21 05:17:05;;;;;;;9.63;3.70;;;9.10;99.90;;;;;;5076412;28;20532;-49
2022/04/21 05:19:31;;;;;;;6.22;3.75;;;9.10;99.90;;;;;;5094151;28;20169;-49
2022/04/21 05:22:02;;;;;;;5.88;3.60;;;9.20;99.90;;;;;;5094079;28;20157;-49
2022/04/21 05:24:31;;;;;;;4.28;3.40;;;9.30;99.90;;;;;;5094075;28;20197;-49
2022/04/21 05:26:57;;;;;;;9.20;3.13;;;9.40;99.90;;;;;;5094267;28;20170;-50
2022/04/21 05:32:08;;;;;;;5.70;3.60;;;9.50;99.90;;;;;;5094225;28;20269;-49
2022/04/21 05:34:34;;;;;;;4.00;3.05;;;9.60;99.90;;;;;;5076087;28;20172;-49
2022/04/21 05:37:01;;;;;;;5.75;3.83;;;9.70;99.90;;;;;;5093732;28;20166;-49
2022/04/21 05:39:28;;;;;;;7.32;3.83;;;9.80;99.90;;;;;;5093965;28;20197;-49
2022/04/21 05:41:55;;;;;;;6.07;4.13;;;9.90;99.90;;;;;;5093715;28;20157;-50
2022/04/21 05:44:21;;;;;;;5.55;3.38;;;10.00;99.90;;;;;;5093902;28;20585;-50
2022/04/21 05:46:47;;;;;;;5.47;3.33;;;10.10;99.90;;;;;;5093887;28;20226;-50
2022/04/21 05:49:13;;;;;;;5.25;3.47;;;10.10;99.90;;;;;;5093606;28;20638;-50
2022/04/21 05:51:39;;;;;;;6.22;4.25;;;10.20;99.90;;;;;;5093578;28;20179;-49
2022/04/21 05:54:06;;;;;;;8.48;4.13;;;10.30;99.90;;;;;;5093738;28;20599;-49
2022/04/21 05:56:33;;;;;;;6.63;4.28;;;8.60;99.90;;;;;;5093655;28;20244;-49
2022/04/21 05:58:58;;;;;;;6.10;4.55;;;10.40;99.90;;;;;;5093283;28;20236;-49
2022/04/21 06:01:25;;;;;;;5.78;4.40;;;10.60;99.90;;;;;;5093389;28;20250;-51
2022/04/21 06:03:52;;;;;;;7.43;4.88;;;10.60;99.90;;;;;;5093538;28;20177;-50
2022/04/21 06:06:18;;;;;;;5.10;3.92;;;10.80;99.90;;;;;;5093417;28;20222;-50
2022/04/21 06:08:43;;;;;;;5.35;4.80;;;10.90;99.90;;;;;;5093189;28;20170;-50
2022/04/21 06:11:09;;;;;;;7.55;4.13;;;10.90;99.90;;;;;;5093065;28;20231;-50
2022/04/21 06:13:36;;;;;;;5.03;4.22;;;11.00;99.90;;;;;;5093652;28;20525;-50
2022/04/21 06:16:01;;;;;;;7.35;4.68;;;11.10;99.90;;;;;;5093642;28;20181;-50
2022/04/21 06:18:27;;;;;;;7.32;4.47;;;11.20;99.90;;;;;;5092975;28;20197;-50
2022/04/21 06:20:53;;;;;;;5.53;4.70;;;11.20;99.90;;;;;;5093239;28;20252;-50
2022/04/21 06:23:20;;;;;;;5.78;4.10;;;11.20;99.90;;;;;;5093256;28;20238;-50
2022/04/21 06:25:47;;;;;;;8.68;4.20;;;11.40;99.90;;;;;;5092971;28;20557;-50
2022/04/21 06:28:13;;;;;;;4.63;4.10;;;11.50;99.90;;;;;;5092698;28;20205;-50
2022/04/21 06:30:39;;;;;;;6.88;4.00;;;11.60;99.90;;;;;;5093091;28;20169;-49
2022/04/21 06:33:05;;;;;;;7.45;4.15;;;11.60;99.90;;;;;;5093160;28;20193;-50
2022/04/21 06:35:31;;;;;;;8.73;3.80;;;11.70;99.90;;;;;;5092758;28;20161;-50
2022/04/21 06:37:58;;;;;;;6.00;3.80;;;11.70;99.90;;;;;;5074560;28;20299;-49
2022/04/21 06:40:23;;;;;;;9.75;4.40;;;11.80;99.90;;;;;;5092724;28;20162;-50
2022/04/21 06:42:49;;;;;;;9.40;4.20;;;11.80;99.90;;;;;;5092663;28;20252;-50
2022/04/21 06:48:03;;;;;;;8.07;4.25;;;12.20;99.90;;;;;;5092416;28;20211;-49
2022/04/21 06:50:39;;;;;;;6.70;4.57;;;12.30;99.90;;;;;;5092689;28;20244;-49
2022/04/21 06:53:09;;;;;;;7.93;4.10;;;12.30;99.90;;;;;;5092721;28;20164;-49
2022/04/21 06:55:35;;;;;;;4.78;3.78;;;12.40;99.90;;;;;;5092692;28;20161;-50
2022/04/21 06:58:01;;;;;;;6.72;4.30;;;13.00;99.90;;;;;;5092646;28;20212;-50
2022/04/21 07:00:27;;;;;;;10.18;4.68;;;12.40;99.90;;;;;;5092341;28;20180;-50
2022/04/21 07:02:57;;;;;;;6.28;4.13;;;12.50;99.90;;;;;;5092556;28;20177;-50
2022/04/21 07:05:24;;;;;;;7.28;4.10;;;12.60;99.90;;;;;;5092214;28;20226;-49
2022/04/21 07:07:50;;;;;;;5.95;4.40;;;12.70;99.90;;;;;;5092107;28;20192;-49
2022/04/21 07:10:18;;;;;;;8.73;4.13;;;12.80;99.90;;;;;;5092502;28;20169;-50
2022/04/21 07:12:44;;;;;;;7.57;4.50;;;13.00;99.90;;;;;;5092199;28;20204;-50
2022/04/21 07:15:10;;;;;;;4.80;3.95;;;13.00;99.90;;;;;;5092073;28;20173;-49
2022/04/21 07:17:37;;;;;;;10.20;4.38;;;13.20;99.90;;;;;;5091989;28;20662;-50
2022/04/21 07:20:04;;;;;;;7.95;4.43;;;13.20;99.90;;;;;;5092533;28;20303;-50
2022/04/21 07:22:30;;;;;;;10.43;3.83;;;13.30;99.90;;;;;;5092043;28;20154;-50
2022/04/21 07:24:57;;;;;;;10.25;3.97;;;13.40;99.90;;;;;;5073942;28;20169;-50
2022/04/21 07:27:24;;;;;;;6.22;3.88;;;13.60;99.90;;;;;;5091892;28;20157;-50
2022/04/21 07:29:49;;;;;;;6.55;3.97;;;13.70;99.90;;;;;;5092032;28;20173;-50
2022/04/21 07:32:16;;;;;;;5.75;3.80;;;13.80;99.90;;;;;;5092053;28;20568;-50
2022/04/21 07:34:41;;;;;;;10.00;4.32;;;13.90;99.90;;;;;;5091986;28;20529;-50
2022/04/21 07:37:09;;;;;;;7.10;3.78;;;13.80;99.90;;;;;;5091977;28;20172;-49
2022/04/21 07:39:36;;;;;;;6.38;3.90;;;13.80;99.90;;;;;;5092371;28;20177;-50
2022/04/21 07:42:02;;;;;;;7.32;3.65;;;14.00;99.90;;;;;;5092459;28;20219;-50
2022/04/21 07:44:28;;;;;;;13.93;4.20;;;14.10;99.90;;;;;;5091825;28;20186;-49
2022/04/21 07:46:54;;;;;;;7.97;3.92;;;14.30;99.90;;;;;;5091762;28;20622;-50
2022/04/21 07:54:48;;;;;;;8.68;4.00;;;14.60;99.90;;;;;;5091779;28;20169;-50
2022/04/21 07:57:13;;;;;;;10.32;3.85;;;14.80;99.90;;;;;;5091704;28;20170;-50
2022/04/21 07:59:39;;;;;;;9.27;4.20;;;14.80;99.90;;;;;;5091967;28;20196;-50
2022/04/21 08:02:08;;;;;;;6.22;4.25;;;14.70;99.90;;;;;;5095941;28;20184;-50
2022/04/21 08:04:34;;;;;;;6.07;3.30;;;14.90;99.90;;;;;;5096176;28;20173;-50
2022/04/21 08:07:00;;;;;;;5.05;3.67;;;14.80;99.90;;;;;;5095479;28;20169;-49
2022/04/21 08:09:26;;;;;;;5.40;3.60;;;14.90;99.90;;;;;;5095532;28;20728;-50
2022/04/21 08:11:51;;;;;;;4.45;3.65;;;14.90;99.90;;;;;;5077420;28;20173;-49
2022/04/21 08:14:17;;;;;;;4.47;3.60;;;15.10;99.90;;;;;;5095409;28;20180;-50
2022/04/21 08:16:43;;;;;;;3.70;3.22;;;15.30;99.90;;;;;;5095777;28;20177;-49
2022/04/21 08:19:09;;;;;;;10.48;3.70;;;15.30;99.90;;;;;;5095281;28;20575;-50
2022/04/21 08:21:37;;;;;;;12.23;3.60;;;15.30;99.90;;;;;;5095622;28;20165;-50
2022/04/21 08:32:33;;;;;;;5.55;4.13;;;15.60;99.90;;;;;;5095191;28;20168;-50
2022/04/21 08:35:01;;;;;;;5.18;3.80;;;15.40;99.90;;;;;;5095068;28;20204;-50
2022/04/21 08:37:27;;;;;;;6.32;3.83;;;15.50;99.90;;;;;;5095148;28;20177;-50
2022/04/21 08:39:53;;;;;;;6.70;3.90;;;15.60;99.90;;;;;;5094932;28;20260;-50
2022/04/21 08:42:20;;;;;;;9.20;3.67;;;15.70;99.90;;;;;;5094791;28;20661;-50
2022/04/21 08:44:47;;;;;;;7.72;3.67;;;15.70;99.90;;;;;;5094937;28;20303;-50
2022/04/21 08:47:14;;;;;;;4.32;3.42;;;15.50;99.90;;;;;;5094827;28;20162;-50
2022/04/21 08:49:44;;;;;;;7.22;4.07;;;15.50;99.90;;;;;;5092997;28;20181;-49
2022/04/21 08:52:11;;;;;;;6.63;3.67;;;15.50;99.90;;;;;;5093317;28;20165;-51
2022/04/21 08:54:37;;;;;;;4.63;3.67;;;15.40;99.90;;;;;;5093500;28;20177;-52
2022/04/21 08:57:03;;;;;;;5.65;3.90;;;15.30;99.90;;;;;;5093745;28;20554;-52
2022/04/21 08:59:29;;;;;;;7.70;3.72;;;15.40;99.90;;;;;;5093330;28;20205;-52
2022/04/21 09:01:59;;;;;;;5.00;3.70;;;15.70;99.90;;;;;;5093430;28;20172;-52
2022/04/21 09:04:24;;;;;;;6.15;3.30;;;15.60;99.90;;;;;;5093489;28;20172;-53
2022/04/21 09:06:50;;;;;;;6.93;3.00;;;15.90;99.90;;;;;;5093163;28;20173;-53
2022/04/21 09:09:20;;;;;;;4.25;3.00;;;15.90;99.90;;;;;;5093398;28;20176;-52
2022/04/21 09:11:45;;;;;;;3.10;2.60;;;16.20;99.90;;;;;;5093042;28;20169;-52
2022/04/21 09:14:17;;;;;;;8.73;3.28;;;18.80;99.90;;;;;;5092925;28;20511;-52
2022/04/21 09:16:42;;;;;;;4.35;2.80;;;16.60;99.90;;;;;;5093298;28;20211;-52
2022/04/21 09:19:08;;;;;;;3.17;2.88;;;16.70;99.90;;;;;;5093071;28;20208;-52
2022/04/21 09:21:38;;;;;;;4.50;2.75;;;16.40;99.90;;;;;;5093206;28;20606;-47
2022/04/21 09:24:27;;;;;;;7.72;3.00;;;16.40;99.90;;;;;;5093217;28;20252;-46
2022/04/21 09:26:56;;;;;;;6.00;3.40;;;16.60;99.90;;;;;;5092654;28;20638;-50
2022/04/21 09:29:30;;;;;;;4.57;2.72;;;16.80;99.70;;;;;;5092551;28;20217;-48
2022/04/21 09:32:00;;;;;;;3.20;2.70;;;16.90;98.00;;;;;;5092806;28;20175;-48
2022/04/21 09:34:26;;;;;;;7.95;2.47;;;17.00;97.60;;;;;;5092669;28;20232;-52
2022/04/21 09:36:55;;;;;;;4.10;2.70;;;17.20;97.00;;;;;;5092707;28;20205;-49
2022/04/21 09:39:22;;;;;;;4.90;2.00;;;17.20;97.70;;;;;;5092658;28;20215;-49
2022/04/21 09:41:53;;;;;;;2.22;1.95;;;17.20;93.10;;;;;;5092502;28;20676;-47
2022/04/21 09:47:05;;;;;;;2.35;1.80;;;17.40;88.60;;;;;;5092721;28;20215;-47
2022/04/21 09:49:36;;;;;;;2.55;2.35;;;17.30;84.00;;;;;;5092711;28;20172;-48
2022/04/21 09:52:02;;;;;;;3.15;1.95;;;17.20;84.60;;;;;;5092446;28;20175;-47
2022/04/21 09:54:31;;;;;;;5.38;2.45;;;17.30;84.30;;;;;;5092604;28;20169;-48
2022/04/21 09:56:57;;;;;;;2.88;2.08;;;17.40;83.90;;;;;;5092199;28;20188;-48
2022/04/21 09:59:24;;;;;;;3.53;2.00;;;17.40;83.80;;;;;;5092171;28;20298;-50
2022/04/21 10:01:50;;;;;;;2.90;1.90;;;17.50;81.90;;;;;;5092238;28;20248;-49
2022/04/21 10:04:19;;;;;;;2.50;2.08;;;17.50;81.50;;;;;;5091981;28;20177;-49
2022/04/21 10:06:45;;;;;;;5.38;2.13;;;17.60;80.00;;;;;;5092341;28;20165;-50
2022/04/21 10:09:12;;;;;;;7.70;2.20;;;17.70;81.60;;;;;;5091833;28;20169;-49
2022/04/21 10:11:41;;;;;;;4.35;1.90;;;18.00;82.00;;;;;;5092022;28;20188;-50
2022/04/21 10:14:07;;;;;;;2.58;1.70;;;18.00;79.40;;;;;;5092054;28;20256;-50
2022/04/21 10:16:33;;;;;;;3.60;1.73;;;18.40;77.80;;;;;;5092252;28;20172;-50
2022/04/21 10:19:00;;;;;;;3.85;2.00;;;18.50;77.70;;;;;;5091588;28;20201;-51
2022/04/21 10:21:31;;;;;;;2.20;1.70;;;18.50;76.20;;;;;;5091820;28;20170;-50
2022/04/21 10:23:58;;;;;;;6.50;2.00;;;18.70;78.60;;;;;;5091057;28;20173;-50
2022/04/21 10:26:50;;;;;;;3.70;1.90;;;18.60;81.00;;;;;;5091801;28;20177;-48
2022/04/21 10:29:18;;;;;;;4.15;1.85;;;18.70;75.90;;;;;;5087125;28;20217;-51
2022/04/21 10:31:45;;;;;;;3.42;2.00;;;18.70;76.70;;;;;;5091646;28;20164;-50
2022/04/21 10:34:26;;;;;;;4.50;2.80;;;18.70;74.50;;;;;;5091679;28;20184;-50
2022/04/21 10:37:03;;;;;;;3.10;1.95;;;18.70;74.60;;;;;;5091438;28;20165;-50
2022/04/21 10:39:30;;;;;;;3.40;2.00;;;18.80;74.30;;;;;;5091428;28;20254;-50
2022/04/21 10:42:18;;;;;;;2.42;2.00;;;18.80;73.20;;;;;;5091950;28;20662;-50
2022/04/21 10:44:45;;;;;;;3.00;1.65;;;18.80;73.70;;;;;;5091306;28;20166;-50
2022/04/21 10:47:30;;;;;;;5.70;2.00;;;18.80;73.50;;;;;;5091230;28;20179;-49
2022/04/21 10:49:57;;;;;;;2.65;2.20;;;18.70;72.00;;;;;;5091366;28;20256;-50
2022/04/21 10:57:48;;;;;;;4.35;2.60;;;18.60;73.00;;;;;;5091086;28;20216;-48
2022/04/21 11:00:25;;;;;;;3.38;2.20;;;18.80;74.30;;;;;;5091433;28;20193;-48
2022/04/21 11:03:08;;;;;;;3.80;2.25;;;18.70;75.80;;;;;;5091280;28;20169;-48
2022/04/21 11:05:40;;;;;;;3.10;2.38;;;18.50;74.40;;;;;;5091580;28;20165;-48
2022/04/21 11:08:13;;;;;;;2.50;2.30;;;18.30;74.70;;;;;;5090942;28;20180;-48
2022/04/21 11:10:39;;;;;;;6.85;2.35;;;18.40;76.10;;;;;;5091248;28;20253;-48
2022/04/21 11:13:06;;;;;;;7.10;2.33;;;18.40;75.10;;;;;;5091516;28;20654;-48
2022/04/21 11:15:33;;;;;;;5.60;2.40;;;18.60;76.30;;;;;;5091275;28;20722;-48
2022/04/21 11:18:09;;;;;;;4.43;2.53;;;18.30;75.10;;;;;;5090955;28;20228;-48
2022/04/21 11:20:40;;;;;;;6.05;2.25;;;18.20;75.40;;;;;;5091419;28;20181;-49
2022/04/21 11:23:44;;;;;;;4.13;2.40;;;18.10;76.70;;;;;;5091117;28;20161;-48
2022/04/21 11:26:11;;;;;;;9.85;2.78;;;18.10;78.20;;;;;;5090438;28;20706;-50
2022/04/21 11:28:42;;;;;;;3.42;2.15;;;18.10;79.70;;;;;;5090606;28;20741;-48
2022/04/21 11:31:08;;;;;;;2.40;1.83;;;18.10;79.30;;;;;;5090734;28;20634;-48
2022/04/21 11:33:35;;;;;;;3.13;2.30;;;18.00;79.30;;;;;;5091403;28;20176;-49
2022/04/21 11:36:05;;;;;;;3.10;1.83;;;17.80;78.80;;;;;;5095104;28;20629;-49
2022/04/21 11:38:35;;;;;;;4.20;1.85;;;17.50;78.30;;;;;;5095307;28;20295;-50
2022/04/21 11:41:03;;;;;;;5.20;2.08;;;16.70;79.10;;;;;;5095506;28;20538;-49
2022/04/21 11:43:28;;;;;;;2.45;2.03;;;17.30;79.50;;;;;;5094801;28;20248;-50
2022/04/21 11:45:56;;;;;;;2.25;1.95;;;17.00;80.00;;;;;;5094918;28;20290;-48
2022/04/21 11:48:27;;;;;;;6.30;2.30;;;17.00;80.40;;;;;;5094771;28;20161;-49
2022/04/21 11:50:53;;;;;;;4.95;2.10;;;17.30;81.70;;;;;;5094807;28;20247;-49
2022/04/21 11:53:20;;;;;;;6.25;2.20;;;17.20;80.80;;;;;;5094903;28;20165;-48
2022/04/21 11:55:47;;;;;;;5.75;2.58;;;17.10;83.20;;;;;;5094948;28;20183;-49
2022/04/21 11:58:24;;;;;;;4.32;2.42;;;16.10;80.70;;;;;;5094412;28;20258;-48
2022/04/21 12:06:29;;;;;;;4.97;2.22;;;17.10;82.50;;;;;;5094451;28;20172;-48
2022/04/21 12:08:55;;;;;;;3.83;2.50;;;17.00;83.10;;;;;;5094319;28;20176;-49
2022/04/21 12:11:22;;;;;;;7.07;2.42;;;17.40;84.50;;;;;;5094324;28;20168;-49
2022/04/21 12:13:49;;;;;;;2.83;2.17;;;17.60;85.90;;;;;;5094478;28;20200;-48
2022/04/21 12:16:53;;;;;;;4.80;2.53;;;17.60;83.30;;;;;;5094292;28;20192;-50
2022/04/21 12:19:38;;;;;;;4.22;2.13;;;17.80;85.20;;;;;;4992219;28;20220;-48
2022/04/21 12:22:09;;;;;;;4.10;2.53;;;17.40;83.50;;;;;;5089093;28;20209;-48
2022/04/21 12:24:43;;;;;;;5.78;2.75;;;17.90;85.40;;;;;;5094573;28;20572;-49
2022/04/21 12:27:13;;;;;;;3.17;2.30;;;17.50;84.70;;;;;;5093759;28;20233;-48
2022/04/21 12:29:52;;;;;;;6.03;2.88;;;17.60;86.80;;;;;;5093964;28;20272;-48
2022/04/21 12:32:32;;;;;;;5.28;2.88;;;17.90;87.80;;;;;;5093885;28;20196;-48
2022/04/21 12:35:01;;;;;;;5.53;2.70;;;18.00;87.20;;;;;;5094170;28;20230;-49
2022/04/21 12:37:28;;;;;;;3.70;2.72;;;18.00;88.30;;;;;;5093788;28;20157;-48
2022/04/21 12:39:56;;;;;;;7.45;3.03;;;18.00;87.40;;;;;;5093955;28;20218;-48
2022/04/21 12:42:22;;;;;;;5.53;2.65;;;18.40;87.70;;;;;;5093553;28;20176;-48
2022/04/21 12:44:50;;;;;;;3.35;2.88;;;18.00;86.30;;;;;;5093778;28;20181;-48
2022/04/21 12:47:17;;;;;;;7.22;3.25;;;18.00;85.80;;;;;;5092908;28;20637;-48
2022/04/21 12:50:07;;;;;;;6.97;3.05;;;18.40;87.40;;;;;;5093460;28;20164;-48
2022/04/21 12:52:39;;;;;;;9.00;2.70;;;18.20;88.50;;;;;;5092412;28;20638;-48
2022/04/21 12:55:21;;;;;;;4.97;3.00;;;18.40;88.50;;;;;;5093392;28;20601;-48
2022/04/21 12:58:05;;;;;;;6.50;2.72;;;18.70;89.20;;;;;;5093559;28;20268;-48
2022/04/21 13:00:32;;;;;;;4.90;2.95;;;18.80;87.00;;;;;;5093568;28;20222;-48
2022/04/21 13:02:59;;;;;;;8.52;3.00;;;18.60;87.50;;;;;;5093086;28;20154;-49
2022/04/21 13:05:25;;;;;;;5.70;2.78;;;18.60;88.20;;;;;;5093336;28;20166;-49
2022/04/21 13:07:51;;;;;;;5.20;2.72;;;18.60;87.90;;;;;;5091617;28;20200;-49
2022/04/21 13:10:16;;;;;;;7.95;2.88;;;18.70;86.60;;;;;;5093167;28;20196;-48
2022/04/21 13:12:42;;;;;;;3.45;2.92;;;19.10;86.70;;;;;;5093280;28;20573;-48
2022/04/21 13:15:09;;;;;;;3.67;2.58;;;19.40;86.00;;;;;;5093056;28;20184;-48
2022/04/21 13:17:34;;;;;;;3.70;2.70;;;19.70;86.40;;;;;;5093929;28;20173;-49
2022/04/21 13:20:00;;;;;;;9.75;3.08;;;20.10;86.20;;;;;;5093010;28;20176;-49
2022/04/21 13:22:26;;;;;;;4.28;2.80;;;20.00;86.30;;;;;;5092857;28;20244;-49
2022/04/21 13:24:51;;;;;;;3.15;2.85;;;19.80;85.60;;;;;;5092438;28;20176;-48
2022/04/21 13:27:19;;;;;;;4.20;2.83;;;19.80;84.50;;;;;;5092377;28;20183;-48
2022/04/21 13:29:44;;;;;;;6.05;3.05;;;19.40;85.50;;;;;;5092348;28;20653;-49
2022/04/21 13:34:54;;;;;;;4.85;3.05;;;19.50;86.20;;;;;;5092676;28;20177;-50
2022/04/21 13:37:19;;;;;;;6.03;3.03;;;19.80;86.00;;;;;;5092744;28;20626;-50
2022/04/21 13:39:45;;;;;;;2.40;2.20;;;19.70;88.00;;;;;;5092619;28;20205;-49
2022/04/21 13:54:31;;;;;;;6.38;3.95;;;19.10;88.00;;;;;;5127978;27;20314;-43
2022/04/21 13:56:56;;;;;;;5.88;3.60;;;18.20;90.80;;;;;;5106696;28;20469;-43
2022/04/21 13:59:22;;;;;;;6.65;3.72;;;18.10;90.90;;;;;;5108239;28;20637;-44
2022/04/21 14:01:47;;;;;;;3.80;3.30;;;18.20;90.90;;;;;;5108479;28;20177;-44